Time;durP1;ratioP1;P1;durP2;ratioP2;P2;SDS_P1;SDS_P2;PMS_P1;PMS_P2;Temp;Humidity;BMP_temperature;BMP_pressure;BME280_temperature;BME280_humidity;BME280_pressure;Samples;Min_cycle;Max_cycle;Signal;HPM_P1;HPM_P2
2022/02/26 00:01:07;;;;;;;;;;;;;;;;;;5102988;28;19920;-79
2022/02/26 00:03:33;;;;;;;;;;;;;;;;;;5102050;28;19963;-78
2022/02/26 00:05:58;;;;;;;;;;;;;;;;;;5101317;28;19916;-78
2022/02/26 00:08:23;;;;;;;;;;;;;;;;;;5101825;28;19916;-78
2022/02/26 00:10:49;;;;;;;;;;;;;;;;;;5099305;28;19965;-78
2022/02/26 00:13:14;;;;;;;;;;;;;;;;;;5100910;28;19916;-78
2022/02/26 00:15:39;;;;;;;;;;;;;;;;;;5103482;28;19919;-78
2022/02/26 00:18:05;;;;;;;;;;;;;;;;;;5119414;28;20006;-77
2022/02/26 00:20:39;;;;;;;;;;;;;;;;;;5120072;28;19923;-78
2022/02/26 00:23:13;;;;;;;;;;;;;;;;;;5119187;28;19968;-78
2022/02/26 00:25:39;;;;;;;;;;;;;;;;;;5119448;28;20006;-78
2022/02/26 00:28:04;;;;;;;;;;;;;;;;;;5120088;28;19915;-78
2022/02/26 00:30:29;;;;;;;;;;;;;;;;;;5117826;28;19927;-78
2022/02/26 00:32:55;;;;;;;;;;;;;;;;;;5118983;28;19947;-78
2022/02/26 00:35:20;;;;;;;;;;;;;;;;;;5119314;28;19920;-78
2022/02/26 00:37:45;;;;;;;;;;;;;;;;;;5117521;28;19915;-78
2022/02/26 00:40:11;;;;;;;;;;;;;;;;;;5118769;28;19937;-78
2022/02/26 00:42:36;;;;;;;;;;;;;;;;;;5116864;28;19916;-78
2022/02/26 00:45:02;;;;;;;;;;;;;;;;;;5119240;28;20395;-78
2022/02/26 00:47:27;;;;;;;;;;;;;;;;;;5099984;28;19939;-78
2022/02/26 00:49:53;;;;;;;;;;;;;;;;;;5098173;28;19912;-78
2022/02/26 00:52:19;;;;;;;;;;;;;;;;;;5097643;28;19920;-78
2022/02/26 00:54:45;;;;;;;;;;;;;;;;;;5098302;28;20346;-78
2022/02/26 00:57:10;;;;;;;;;;;;;;;;;;5098223;28;20018;-78
2022/02/26 00:59:36;;;;;;;;;;;;;;;;;;5098317;28;19920;-78
2022/02/26 01:02:01;;;;;;;;;;;;;;;;;;5100657;28;20010;-78
2022/02/26 01:04:26;;;;;;;;;;;;;;;;;;5100710;28;20394;-78
2022/02/26 01:06:52;;;;;;;;;;;;;;;;;;5098748;28;20420;-78
2022/02/26 01:09:19;;;;;;;;;;;;;;;;;;5099747;28;19923;-78
2022/02/26 01:11:45;;;;;;;;;;;;;;;;;;5099194;28;19924;-78
2022/02/26 01:14:10;;;;;;;;;;;;;;;;;;5099795;28;20014;-78
2022/02/26 01:16:36;;;;;;;;;;;;;;;;;;5099455;28;19947;-78
2022/02/26 01:19:02;;;;;;;;;;;;;;;;;;5099963;28;19916;-78
2022/02/26 01:21:27;;;;;;;;;;;;;;;;;;5099361;28;19938;-78
2022/02/26 01:23:53;;;;;;;;;;;;;;;;;;5098244;28;19916;-78
2022/02/26 01:26:19;;;;;;;;;;;;;;;;;;5099559;28;19916;-78
2022/02/26 01:28:44;;;;;;;;;;;;;;;;;;5099881;28;19978;-78
2022/02/26 01:31:10;;;;;;;;;;;;;;;;;;5099827;28;19923;-78
2022/02/26 01:33:35;;;;;;;;;;;;;;;;;;5099473;28;19916;-78
2022/02/26 01:36:01;;;;;;;;;;;;;;;;;;5099999;28;19938;-78
2022/02/26 01:38:26;;;;;;;;;;;;;;;;;;5098421;28;19920;-78
2022/02/26 01:40:52;;;;;;;;;;;;;;;;;;5099072;28;20289;-78
2022/02/26 01:43:17;;;;;;;;;;;;;;;;;;5105908;28;19916;-78
2022/02/26 01:45:43;;;;;;;;;;;;;;;;;;5081038;28;19962;-78
2022/02/26 01:48:09;;;;;;;;;;;;;;;;;;5099464;28;19916;-78
2022/02/26 01:50:34;;;;;;;;;;;;;;;;;;5098778;28;20366;-78
2022/02/26 01:53:01;;;;;;;;;;;;;;;;;;5098154;28;20271;-78
2022/02/26 01:55:26;;;;;;;;;;;;;;;;;;5096867;28;19923;-78
2022/02/26 01:57:52;;;;;;;;;;;;;;;;;;5098381;28;20386;-78
2022/02/26 02:00:18;;;;;;;;;;;;;;;;;;5098631;28;19984;-78
2022/02/26 02:02:43;;;;;;;;;;;;;;;;;;5098374;28;20011;-78
2022/02/26 02:05:09;;;;;;;;;;;;;;;;;;5097920;28;19939;-78
2022/02/26 02:07:34;;;;;;;;;;;;;;;;;;5097746;28;19916;-78
2022/02/26 02:10:00;;;;;;;;;;;;;;;;;;5098238;28;20000;-78
2022/02/26 02:12:25;;;;;;;;;;;;;;;;;;5101127;28;20358;-78
2022/02/26 02:14:50;;;;;;;;;;;;;;;;;;5100608;28;19916;-78
2022/02/26 02:17:16;;;;;;;;;;;;;;;;;;5101594;28;19919;-78
2022/02/26 02:19:41;;;;;;;;;;;;;;;;;;5100001;28;20003;-78
2022/02/26 02:22:07;;;;;;;;;;;;;;;;;;5101458;28;19938;-78
2022/02/26 02:24:33;;;;;;;;;;;;;;;;;;5102419;28;19923;-78
2022/02/26 02:27:02;;;;;;;;;;;;;;;;;;5101024;28;19916;-78
2022/02/26 02:29:28;;;;;;;;;;;;;;;;;;5101259;28;19916;-78
2022/02/26 02:31:54;;;;;;;;;;;;;;;;;;5101381;28;19916;-78
2022/02/26 02:34:19;;;;;;;;;;;;;;;;;;5101622;28;19916;-79
2022/02/26 02:36:45;;;;;;;;;;;;;;;;;;5100511;28;19916;-78
2022/02/26 02:39:12;;;;;;;;;;;;;;;;;;5101371;28;19955;-78
2022/02/26 02:41:38;;;;;;;;;;;;;;;;;;5101243;28;19938;-78
2022/02/26 02:44:03;;;;;;;;;;;;;;;;;;5100991;28;19923;-78
2022/02/26 02:46:29;;;;;;;;;;;;;;;;;;5101603;28;19916;-78
2022/02/26 02:48:54;;;;;;;;;;;;;;;;;;5101790;28;19916;-78
2022/02/26 02:51:20;;;;;;;;;;;;;;;;;;5101103;28;20477;-78
2022/02/26 02:53:45;;;;;;;;;;;;;;;;;;5101580;28;19920;-78
2022/02/26 02:56:11;;;;;;;;;;;;;;;;;;5100784;28;19923;-78
2022/02/26 02:58:36;;;;;;;;;;;;;;;;;;5101225;28;19956;-78
2022/02/26 03:01:02;;;;;;;;;;;;;;;;;;5099588;28;20036;-78
2022/02/26 03:03:27;;;;;;;;;;;;;;;;;;5091905;28;19917;-79
2022/02/26 03:05:53;;;;;;;;;;;;;;;;;;5103061;28;19967;-78
2022/02/26 03:08:23;;;;;;;;;;;;;;;;;;5101527;28;20316;-78
2022/02/26 03:10:48;;;;;;;;;;;;;;;;;;5088648;28;19923;-78
2022/02/26 03:13:14;;;;;;;;;;;;;;;;;;5081537;28;19917;-78
2022/02/26 03:15:40;;;;;;;;;;;;;;;;;;5082791;28;19988;-78
2022/02/26 03:18:05;;;;;;;;;;;;;;;;;;5082225;28;19969;-78
2022/02/26 03:20:30;;;;;;;;;;;;;;;;;;5080992;28;20386;-78
2022/02/26 03:22:55;;;;;;;;;;;;;;;;;;5079414;28;19931;-78
2022/02/26 03:25:23;;;;;;;;;;;;;;;;;;5080608;28;20003;-78
2022/02/26 03:27:50;;;;;;;;;;;;;;;;;;5080293;28;19970;-78
2022/02/26 03:30:16;;;;;;;;;;;;;;;;;;5080409;28;19924;-79
2022/02/26 03:32:42;;;;;;;;;;;;;;;;;;5078861;28;19916;-78
2022/02/26 03:35:08;;;;;;;;;;;;;;;;;;5080092;28;20381;-78
2022/02/26 03:37:33;;;;;;;;;;;;;;;;;;5080198;28;19919;-78
2022/02/26 03:39:59;;;;;;;;;;;;;;;;;;5080160;28;19920;-78
2022/02/26 03:42:24;;;;;;;;;;;;;;;;;;5087183;28;20438;-78
2022/02/26 03:44:50;;;;;;;;;;;;;;;;;;5099419;28;19920;-78
2022/02/26 03:47:16;;;;;;;;;;;;;;;;;;5100414;28;20312;-78
2022/02/26 03:49:46;;;;;;;;;;;;;;;;;;5100077;28;19923;-78
2022/02/26 03:52:11;;;;;;;;;;;;;;;;;;5099667;28;19970;-78
2022/02/26 03:54:36;;;;;;;;;;;;;;;;;;5100005;28;20362;-79
2022/02/26 03:57:02;;;;;;;;;;;;;;;;;;5100073;28;19954;-78
2022/02/26 03:59:27;;;;;;;;;;;;;;;;;;5099620;28;19926;-78
2022/02/26 04:01:53;;;;;;;;;;;;;;;;;;5100587;28;19923;-78
2022/02/26 04:04:20;;;;;;;;;;;;;;;;;;5100433;28;19916;-79
2022/02/26 04:06:45;;;;;;;;;;;;;;;;;;5099721;28;19923;-78
2022/02/26 04:09:11;;;;;;;;;;;;;;;;;;5100150;28;19916;-78
2022/02/26 04:11:37;;;;;;;;;;;;;;;;;;5100028;28;20470;-78
2022/02/26 04:14:03;;;;;;;;;;;;;;;;;;5111591;28;19919;-78
2022/02/26 04:16:28;;;;;;;;;;;;;;;;;;5120335;28;19961;-79
2022/02/26 04:18:54;;;;;;;;;;;;;;;;;;5120162;28;19947;-79
2022/02/26 04:21:19;;;;;;;;;;;;;;;;;;5119663;28;20305;-78
2022/02/26 04:23:44;;;;;;;;;;;;;;;;;;5119903;28;19915;-79
2022/02/26 04:26:10;;;;;;;;;;;;;;;;;;5114513;28;19924;-79
2022/02/26 04:28:36;;;;;;;;;;;;;;;;;;5100196;28;19920;-79
2022/02/26 04:31:02;;;;;;;;;;;;;;;;;;5098577;28;19916;-79
2022/02/26 04:33:28;;;;;;;;;;;;;;;;;;5100238;28;19916;-79
2022/02/26 04:35:54;;;;;;;;;;;;;;;;;;5103924;28;20007;-79
2022/02/26 04:38:19;;;;;;;;;;;;;;;;;;5102081;28;19962;-79
2022/02/26 04:40:45;;;;;;;;;;;;;;;;;;5101821;28;19921;-79
2022/02/26 04:43:10;;;;;;;;;;;;;;;;;;5100414;28;19935;-79
2022/02/26 04:45:35;;;;;;;;;;;;;;;;;;5099121;28;19916;-79
2022/02/26 04:48:01;;;;;;;;;;;;;;;;;;5100524;28;20003;-79
2022/02/26 04:50:27;;;;;;;;;;;;;;;;;;5099402;28;19916;-79
2022/02/26 04:52:52;;;;;;;;;;;;;;;;;;5100072;28;19920;-79
2022/02/26 04:55:18;;;;;;;;;;;;;;;;;;5101252;28;19922;-79
2022/02/26 04:57:44;;;;;;;;;;;;;;;;;;5101837;28;19916;-79
2022/02/26 05:00:10;;;;;;;;;;;;;;;;;;5101860;28;19920;-79
2022/02/26 05:02:36;;;;;;;;;;;;;;;;;;5100702;28;19945;-79
2022/02/26 05:05:02;;;;;;;;;;;;;;;;;;5101172;28;19943;-79
2022/02/26 05:07:27;;;;;;;;;;;;;;;;;;5101578;28;20361;-79
2022/02/26 05:09:52;;;;;;;;;;;;;;;;;;5100856;28;19923;-79
2022/02/26 05:12:18;;;;;;;;;;;;;;;;;;5100419;28;20373;-79
2022/02/26 05:14:43;;;;;;;;;;;;;;;;;;5085330;28;19923;-79
2022/02/26 05:17:08;;;;;;;;;;;;;;;;;;5080274;28;19917;-79
2022/02/26 05:19:34;;;;;;;;;;;;;;;;;;5079257;28;19947;-79
2022/02/26 05:21:59;;;;;;;;;;;;;;;;;;5098674;28;20049;-79
2022/02/26 05:24:25;;;;;;;;;;;;;;;;;;5100578;28;19916;-79
2022/02/26 05:26:50;;;;;;;;;;;;;;;;;;5100265;28;19927;-79
2022/02/26 05:29:15;;;;;;;;;;;;;;;;;;5099734;28;20263;-78
2022/02/26 05:31:40;;;;;;;;;;;;;;;;;;5099442;28;19965;-78
2022/02/26 05:34:06;;;;;;;;;;;;;;;;;;5099753;28;19916;-78
2022/02/26 05:36:31;;;;;;;;;;;;;;;;;;5099055;28;20243;-79
2022/02/26 05:38:56;;;;;;;;;;;;;;;;;;5098123;28;19923;-78
2022/02/26 05:41:22;;;;;;;;;;;;;;;;;;5099123;28;19971;-78
2022/02/26 05:43:47;;;;;;;;;;;;;;;;;;5109979;28;19916;-78
2022/02/26 05:46:13;;;;;;;;;;;;;;;;;;5118923;28;19969;-78
2022/02/26 05:48:38;;;;;;;;;;;;;;;;;;5118221;28;19943;-78
2022/02/26 05:51:04;;;;;;;;;;;;;;;;;;5118777;28;19969;-78
2022/02/26 05:53:29;;;;;;;;;;;;;;;;;;5117081;28;19919;-78
2022/02/26 05:55:55;;;;;;;;;;;;;;;;;;5118658;28;20381;-78
2022/02/26 05:58:20;;;;;;;;;;;;;;;;;;5118955;28;20305;-78
2022/02/26 06:00:46;;;;;;;;;;;;;;;;;;5118777;28;19926;-78
2022/02/26 06:03:12;;;;;;;;;;;;;;;;;;5119171;28;19931;-78
2022/02/26 06:05:37;;;;;;;;;;;;;;;;;;5119345;28;20335;-78
2022/02/26 06:08:04;;;;;;;;;;;;;;;;;;5121359;28;19992;-79
2022/02/26 06:10:29;;;;;;;;;;;;;;;;;;5120105;28;19916;-78
2022/02/26 06:12:56;;;;;;;;;;;;;;;;;;5107166;28;19916;-78
2022/02/26 06:15:21;;;;;;;;;;;;;;;;;;5099238;28;20070;-78
2022/02/26 06:17:46;;;;;;;;;;;;;;;;;;5099127;28;19939;-78
2022/02/26 06:20:13;;;;;;;;;;;;;;;;;;5097148;28;19927;-78
2022/02/26 06:22:38;;;;;;;;;;;;;;;;;;5098900;28;20006;-78
2022/02/26 06:25:04;;;;;;;;;;;;;;;;;;5097289;28;19947;-78
2022/02/26 06:27:29;;;;;;;;;;;;;;;;;;5108122;28;19930;-78
2022/02/26 06:29:54;;;;;;;;;;;;;;;;;;5091052;28;19916;-79
2022/02/26 06:32:20;;;;;;;;;;;;;;;;;;5073566;28;19920;-78
2022/02/26 06:34:47;;;;;;;;;;;;;;;;;;5072953;28;19923;-77
2022/02/26 06:37:12;;;;;;;;;;;;;;;;;;5076145;28;19958;-77
2022/02/26 06:39:38;;;;;;;;;;;;;;;;;;5076250;28;20289;-77
2022/02/26 06:42:03;;;;;;;;;;;;;;;;;;5073348;28;19916;-77
2022/02/26 06:44:28;;;;;;;;;;;;;;;;;;5089402;28;20033;-77
2022/02/26 06:46:53;;;;;;;;;;;;;;;;;;5092869;28;20019;-77
2022/02/26 06:49:19;;;;;;;;;;;;;;;;;;5094202;28;19916;-77
2022/02/26 06:51:44;;;;;;;;;;;;;;;;;;5093266;28;19923;-77
2022/02/26 06:54:10;;;;;;;;;;;;;;;;;;5093889;28;20329;-78
2022/02/26 06:56:35;;;;;;;;;;;;;;;;;;5093991;28;20359;-77
2022/02/26 06:59:00;;;;;;;;;;;;;;;;;;5094043;28;19927;-78
2022/02/26 07:01:26;;;;;;;;;;;;;;;;;;5096815;28;19920;-77
2022/02/26 07:03:51;;;;;;;;;;;;;;;;;;5097389;28;20396;-77
2022/02/26 07:06:17;;;;;;;;;;;;;;;;;;5095703;28;20317;-77
2022/02/26 07:08:42;;;;;;;;;;;;;;;;;;5097037;28;19923;-77
2022/02/26 07:11:07;;;;;;;;;;;;;;;;;;5096749;28;19970;-77
2022/02/26 07:13:33;;;;;;;;;;;;;;;;;;5095729;28;19916;-77
2022/02/26 07:15:59;;;;;;;;;;;;;;;;;;5100907;28;19916;-79
2022/02/26 07:18:24;;;;;;;;;;;;;;;;;;5102446;28;19916;-80
2022/02/26 07:20:49;;;;;;;;;;;;;;;;;;5101634;28;19917;-80
2022/02/26 07:23:14;;;;;;;;;;;;;;;;;;5101830;28;19923;-79
2022/02/26 07:25:42;;;;;;;;;;;;;;;;;;5100790;28;19920;-80
2022/02/26 07:28:08;;;;;;;;;;;;;;;;;;5084183;28;19938;-80
2022/02/26 07:30:33;;;;;;;;;;;;;;;;;;5080054;28;19956;-78
2022/02/26 07:32:58;;;;;;;;;;;;;;;;;;5085185;28;19920;-80
2022/02/26 07:35:24;;;;;;;;;;;;;;;;;;5097432;28;19965;-77
2022/02/26 07:37:49;;;;;;;;;;;;;;;;;;5096709;28;20018;-76
2022/02/26 07:40:14;;;;;;;;;;;;;;;;;;5095898;28;19920;-75
2022/02/26 07:42:40;;;;;;;;;;;;;;;;;;5095633;28;20527;-76
2022/02/26 07:45:05;;;;;;;;;;;;;;;;;;5090488;28;20328;-78
2022/02/26 07:47:31;;;;;;;;;;;;;;;;;;5076531;28;19920;-79
2022/02/26 07:49:56;;;;;;;;;;;;;;;;;;5079729;28;19916;-78
2022/02/26 07:52:22;;;;;;;;;;;;;;;;;;5076422;28;19947;-78
2022/02/26 07:54:51;;;;;;;;;;;;;;;;;;5076927;28;19969;-77
2022/02/26 07:57:17;;;;;;;;;;;;;;;;;;5074393;28;20317;-82
2022/02/26 07:59:42;;;;;;;;;;;;;;;;;;5076697;28;20403;-78
2022/02/26 08:02:08;;;;;;;;;;;;;;;;;;5076749;28;19916;-77
2022/02/26 08:04:33;;;;;;;;;;;;;;;;;;5077311;28;19917;-77
2022/02/26 08:06:58;;;;;;;;;;;;;;;;;;5075432;28;19920;-78
2022/02/26 08:09:24;;;;;;;;;;;;;;;;;;5074580;28;19916;-78
2022/02/26 08:11:49;;;;;;;;;;;;;;;;;;5075419;28;19917;-78
2022/02/26 08:14:14;;;;;;;;;;;;;;;;;;5076103;28;19916;-77
2022/02/26 08:16:39;;;;;;;;;;;;;;;;;;5085115;28;19964;-77
2022/02/26 08:19:05;;;;;;;;;;;;;;;;;;5096020;28;19916;-77
2022/02/26 08:21:34;;;;;;;;;;;;;;;;;;5094997;28;20045;-78
2022/02/26 08:23:59;;;;;;;;;;;;;;;;;;5094931;28;19920;-77
2022/02/26 08:26:24;;;;;;;;;;;;;;;;;;5097304;28;20053;-77
2022/02/26 08:28:50;;;;;;;;;;;;;;;;;;5097442;28;20357;-78
2022/02/26 08:31:15;;;;;;;;;;;;;;;;;;5097263;28;19961;-78
2022/02/26 08:33:40;;;;;;;;;;;;;;;;;;5098334;28;19920;-77
2022/02/26 08:36:06;;;;;;;;;;;;;;;;;;5098086;28;19920;-77
2022/02/26 08:38:31;;;;;;;;;;;;;;;;;;5096974;28;19916;-77
2022/02/26 08:40:57;;;;;;;;;;;;;;;;;;5097287;28;19920;-77
2022/02/26 08:43:23;;;;;;;;;;;;;;;;;;5096589;28;19966;-77
2022/02/26 08:45:49;;;;;;;;;;;;;;;;;;5099309;28;20006;-78
2022/02/26 08:48:14;;;;;;;;;;;;;;;;;;5100930;28;19955;-78
2022/02/26 08:50:40;;;;;;;;;;;;;;;;;;5096814;28;20305;-78
2022/02/26 08:53:05;;;;;;;;;;;;;;;;;;5097796;28;19959;-78
2022/02/26 08:55:31;;;;;;;;;;;;;;;;;;5097629;28;19927;-78
2022/02/26 08:57:56;;;;;;;;;;;;;;;;;;5098055;28;19916;-78
2022/02/26 09:00:22;;;;;;;;;;;;;;;;;;5098541;28;19920;-78
2022/02/26 09:02:47;;;;;;;;;;;;;;;;;;5098270;28;19935;-78
2022/02/26 09:05:12;;;;;;;;;;;;;;;;;;5099828;28;19987;-78
2022/02/26 09:07:38;;;;;;;;;;;;;;;;;;5098621;28;19916;-78
2022/02/26 09:10:04;;;;;;;;;;;;;;;;;;5098812;28;19916;-79
2022/02/26 09:12:29;;;;;;;;;;;;;;;;;;5098463;28;19923;-79
2022/02/26 09:14:54;;;;;;;;;;;;;;;;;;5097766;28;19986;-78
2022/02/26 09:17:20;;;;;;;;;;;;;;;;;;5101249;28;19926;-78
2022/02/26 09:19:45;;;;;;;;;;;;;;;;;;5077931;28;20389;-78
2022/02/26 09:22:10;;;;;;;;;;;;;;;;;;5074721;28;19920;-78
2022/02/26 09:24:36;;;;;;;;;;;;;;;;;;5078787;28;19970;-78
2022/02/26 09:27:02;;;;;;;;;;;;;;;;;;5078599;28;19938;-78
2022/02/26 09:29:27;;;;;;;;;;;;;;;;;;5080202;28;19959;-79
2022/02/26 09:31:53;;;;;;;;;;;;;;;;;;5080144;28;19975;-78
2022/02/26 09:34:19;;;;;;;;;;;;;;;;;;5078765;28;19923;-78
2022/02/26 09:36:46;;;;;;;;;;;;;;;;;;5079226;28;19981;-79
2022/02/26 09:39:11;;;;;;;;;;;;;;;;;;5079194;28;19924;-78
2022/02/26 09:41:38;;;;;;;;;;;;;;;;;;5080179;28;19917;-78
2022/02/26 09:44:04;;;;;;;;;;;;;;;;;;5079704;28;20382;-78
2022/02/26 09:46:30;;;;;;;;;;;;;;;;;;5078661;28;19962;-78
2022/02/26 09:48:55;;;;;;;;;;;;;;;;;;5091601;28;19916;-78
2022/02/26 09:51:21;;;;;;;;;;;;;;;;;;5099283;28;20280;-78
2022/02/26 09:53:46;;;;;;;;;;;;;;;;;;5098677;28;19974;-78
2022/02/26 09:56:13;;;;;;;;;;;;;;;;;;5092251;28;22229;-79
2022/02/26 09:58:39;;;;;;;;;;;;;;;;;;5076339;28;20007;-78
2022/02/26 10:01:04;;;;;;;;;;;;;;;;;;5077986;28;19927;-79
2022/02/26 10:03:32;;;;;;;;;;;;;;;;;;5078366;28;19970;-77
2022/02/26 10:06:05;;;;;;;;;;;;;;;;;;5082165;28;19923;-79
2022/02/26 10:08:37;;;;;;;;;;;;;;;;;;5119858;28;19919;-80
2022/02/26 10:11:03;;;;;;;;;;;;;;;;;;5078910;28;19916;-80
2022/02/26 10:13:34;;;;;;;;;;;;;;;;;;5080777;28;19927;-79
2022/02/26 10:15:59;;;;;;;;;;;;;;;;;;5079560;28;19917;-79
2022/02/26 10:18:24;;;;;;;;;;;;;;;;;;5077766;28;19923;-79
2022/02/26 10:20:54;;;;;;;;;;;;;;;;;;5076876;28;19921;-79
2022/02/26 10:23:22;;;;;;;;;;;;;;;;;;5077440;28;19919;-79
2022/02/26 10:25:48;;;;;;;;;;;;;;;;;;5062134;28;19928;-79
2022/02/26 10:28:14;;;;;;;;;;;;;;;;;;5096944;28;19916;-79
2022/02/26 10:30:40;;;;;;;;;;;;;;;;;;5096401;28;19995;-79
2022/02/26 10:33:05;;;;;;;;;;;;;;;;;;5099317;28;19940;-80
2022/02/26 10:35:40;;;;;;;;;;;;;;;;;;5100191;28;19916;-79
2022/02/26 10:38:19;;;;;;;;;;;;;;;;;;5100726;28;19920;-79
2022/02/26 10:40:45;;;;;;;;;;;;;;;;;;5103226;28;19946;-80
2022/02/26 10:43:10;;;;;;;;;;;;;;;;;;5104009;28;19920;-80
2022/02/26 10:45:57;;;;;;;;;;;;;;;;;;5103529;28;19964;-79
2022/02/26 10:48:39;;;;;;;;;;;;;;;;;;5102574;28;19923;-79
2022/02/26 10:51:05;;;;;;;;;;;;;;;;;;5103861;28;19916;-79
2022/02/26 10:53:39;;;;;;;;;;;;;;;;;;5104734;28;20019;-79
2022/02/26 10:56:05;;;;;;;;;;;;;;;;;;5103988;28;19923;-79
2022/02/26 10:58:30;;;;;;;;;;;;;;;;;;5105606;28;19916;-79
2022/02/26 11:01:03;;;;;;;;;;;;;;;;;;5105027;28;20006;-79
2022/02/26 11:03:28;;;;;;;;;;;;;;;;;;5106646;28;19923;-79
2022/02/26 11:05:54;;;;;;;;;;;;;;;;;;5098572;28;19917;-79
2022/02/26 11:08:19;;;;;;;;;;;;;;;;;;5095388;28;19916;-79
2022/02/26 11:10:45;;;;;;;;;;;;;;;;;;5104751;28;19984;-78
2022/02/26 11:13:11;;;;;;;;;;;;;;;;;;5085740;28;19921;-77
2022/02/26 11:15:37;;;;;;;;;;;;;;;;;;5090257;28;19995;-78
2022/02/26 11:18:04;;;;;;;;;;;;;;;;;;5096414;28;19923;-77
2022/02/26 11:20:30;;;;;;;;;;;;;;;;;;5100040;28;19920;-80
2022/02/26 11:22:56;;;;;;;;;;;;;;;;;;5086246;28;19938;-79
2022/02/26 11:25:22;;;;;;;;;;;;;;;;;;5096326;28;19925;-76
2022/02/26 11:27:48;;;;;;;;;;;;;;;;;;5095489;28;19916;-75
2022/02/26 11:30:16;;;;;;;;;;;;;;;;;;5097144;28;19922;-76
2022/02/26 11:32:43;;;;;;;;;;;;;;;;;;5099344;28;19931;-75
2022/02/26 11:35:20;;;;;;;;;;;;;;;;;;5097098;28;19959;-76
2022/02/26 11:37:49;;;;;;;;;;;;;;;;;;5097216;28;19916;-76
2022/02/26 11:40:14;;;;;;;;;;;;;;;;;;5097742;28;19920;-77
2022/02/26 11:42:40;;;;;;;;;;;;;;;;;;5095780;28;19916;-76
2022/02/26 11:45:08;;;;;;;;;;;;;;;;;;5096366;28;19923;-76
2022/02/26 11:47:53;;;;;;;;;;;;;;;;;;5097758;28;19916;-77
2022/02/26 11:50:22;;;;;;;;;;;;;;;;;;5099382;28;19923;-76
2022/02/26 11:52:53;;;;;;;;;;;;;;;;;;5096307;28;19921;-76
2022/02/26 11:55:23;;;;;;;;;;;;;;;;;;5096238;28;19927;-74
2022/02/26 11:57:49;;;;;;;;;;;;;;;;;;5095284;28;20285;-76
2022/02/26 12:00:15;;;;;;;;;;;;;;;;;;5097273;28;19920;-77
2022/02/26 12:02:40;;;;;;;;;;;;;;;;;;5096666;28;19927;-76
2022/02/26 12:05:07;;;;;;;;;;;;;;;;;;5096730;28;20311;-76
2022/02/26 12:07:37;;;;;;;;;;;;;;;;;;5096234;28;20011;-76
2022/02/26 12:10:03;;;;;;;;;;;;;;;;;;5096075;28;19916;-76
2022/02/26 12:12:30;;;;;;;;;;;;;;;;;;5094666;28;19946;-76
2022/02/26 12:14:56;;;;;;;;;;;;;;;;;;5095804;28;19923;-77
2022/02/26 12:17:21;;;;;;;;;;;;;;;;;;5094423;28;19920;-76
2022/02/26 12:19:47;;;;;;;;;;;;;;;;;;5095797;28;19927;-75
2022/02/26 12:22:12;;;;;;;;;;;;;;;;;;5077460;28;19916;-75
2022/02/26 12:24:51;;;;;;;;;;;;;;;;;;5095897;28;19924;-74
2022/02/26 12:27:29;;;;;;;;;;;;;;;;;;5094971;28;20003;-75
2022/02/26 12:29:54;;;;;;;;;;;;;;;;;;5095805;28;20014;-75
2022/02/26 12:32:30;;;;;;;;;;;;;;;;;;5095734;28;19959;-75
2022/02/26 12:35:06;;;;;;;;;;;;;;;;;;5096831;28;20294;-76
2022/02/26 12:37:35;;;;;;;;;;;;;;;;;;5097672;28;19920;-75
2022/02/26 12:40:12;;;;;;;;;;;;;;;;;;5097642;28;19924;-75
2022/02/26 12:42:38;;;;;;;;;;;;;;;;;;5097558;28;19920;-77
2022/02/26 12:45:05;;;;;;;;;;;;;;;;;;5094028;28;20300;-76
2022/02/26 12:47:31;;;;;;;;;;;;;;;;;;5096481;28;20354;-76
2022/02/26 12:49:57;;;;;;;;;;;;;;;;;;5094570;28;19923;-75
2022/02/26 12:52:22;;;;;;;;;;;;;;;;;;5094218;28;20426;-75
2022/02/26 12:54:48;;;;;;;;;;;;;;;;;;5095160;28;19916;-75
2022/02/26 12:57:14;;;;;;;;;;;;;;;;;;5094138;28;19923;-76
2022/02/26 12:59:40;;;;;;;;;;;;;;;;;;5095430;28;20281;-74
2022/02/26 13:02:06;;;;;;;;;;;;;;;;;;5094409;28;19916;-75
2022/02/26 13:04:55;;;;;;;;;;;;;;;;;;5096796;28;19920;-76
2022/02/26 13:07:20;;;;;;;;;;;;;;;;;;5094610;28;19923;-78
2022/02/26 13:09:53;;;;;;;;;;;;;;;;;;5099614;28;19916;-79
2022/02/26 13:12:18;;;;;;;;;;;;;;;;;;5096601;28;19976;-76
2022/02/26 13:15:13;;;;;;;;;;;;;;;;;;5094391;28;19916;-76
2022/02/26 13:17:40;;;;;;;;;;;;;;;;;;5078309;28;20437;-79
2022/02/26 13:20:07;;;;;;;;;;;;;;;;;;5096781;28;19973;-81
2022/02/26 13:23:05;;;;;;;;;;;;;;;;;;5097340;28;19916;-78
2022/02/26 13:25:31;;;;;;;;;;;;;;;;;;5063519;28;19920;-79
2022/02/26 13:27:57;;;;;;;;;;;;;;;;;;5097710;28;19938;-80
2022/02/26 13:30:23;;;;;;;;;;;;;;;;;;5096263;28;20270;-79
2022/02/26 13:32:50;;;;;;;;;;;;;;;;;;5096638;28;19916;-77
2022/02/26 13:35:18;;;;;;;;;;;;;;;;;;5096848;28;20392;-77
2022/02/26 13:37:44;;;;;;;;;;;;;;;;;;5095969;28;20380;-77
2022/02/26 13:40:11;;;;;;;;;;;;;;;;;;5096398;28;19920;-77
2022/02/26 13:42:41;;;;;;;;;;;;;;;;;;5098054;28;19916;-79
2022/02/26 13:45:08;;;;;;;;;;;;;;;;;;5096270;28;19924;-80
2022/02/26 13:47:34;;;;;;;;;;;;;;;;;;5076938;28;19916;-78
2022/02/26 13:50:00;;;;;;;;;;;;;;;;;;5084871;28;20046;-81
2022/02/26 13:52:27;;;;;;;;;;;;;;;;;;5079909;28;19924;-77
2022/02/26 13:54:53;;;;;;;;;;;;;;;;;;5078898;28;20274;-79
2022/02/26 13:57:22;;;;;;;;;;;;;;;;;;5077268;28;20069;-77
2022/02/26 13:59:49;;;;;;;;;;;;;;;;;;5075517;28;19920;-78
2022/02/26 14:02:26;;;;;;;;;;;;;;;;;;5079491;28;19929;-79
2022/02/26 14:04:56;;;;;;;;;;;;;;;;;;5076993;28;20016;-77
2022/02/26 14:07:31;;;;;;;;;;;;;;;;;;5078064;28;19920;-78
2022/02/26 14:09:57;;;;;;;;;;;;;;;;;;5079735;28;19924;-77
2022/02/26 14:12:25;;;;;;;;;;;;;;;;;;5078736;28;19916;-77
2022/02/26 14:14:54;;;;;;;;;;;;;;;;;;5095328;28;19916;-78
2022/02/26 14:17:19;;;;;;;;;;;;;;;;;;5101132;28;19965;-78
2022/02/26 14:19:46;;;;;;;;;;;;;;;;;;5105048;28;19923;-78
2022/02/26 14:22:12;;;;;;;;;;;;;;;;;;5101568;28;19920;-77
2022/02/26 14:24:41;;;;;;;;;;;;;;;;;;5104385;28;19939;-79
2022/02/26 14:27:15;;;;;;;;;;;;;;;;;;5083520;28;20007;-78
2022/02/26 14:29:40;;;;;;;;;;;;;;;;;;5103451;28;20089;-80
2022/02/26 14:32:06;;;;;;;;;;;;;;;;;;5103357;28;19962;-83
2022/02/26 14:35:29;;;;;;;;;;;;;;;;;;5105257;28;19947;-81
2022/02/26 14:38:08;;;;;;;;;;;;;;;;;;5091639;28;19920;-78
2022/02/26 14:40:34;;;;;;;;;;;;;;;;;;5107338;28;19908;-81
2022/02/26 14:42:59;;;;;;;;;;;;;;;;;;5106458;28;19927;-82
2022/02/26 14:45:25;;;;;;;;;;;;;;;;;;5107346;28;19916;-88
2022/02/26 14:47:52;;;;;;;;;;;;;;;;;;5106782;28;19951;-84
2022/02/26 14:50:18;;;;;;;;;;;;;;;;;;5130676;28;19916;-83
2022/02/26 14:52:45;;;;;;;;;;;;;;;;;;5126119;28;19965;-84
2022/02/26 14:55:14;;;;;;;;;;;;;;;;;;5129435;28;19916;-83
2022/02/26 14:57:41;;;;;;;;;;;;;;;;;;5128486;28;19923;-86
2022/02/26 15:00:08;;;;;;;;;;;;;;;;;;5114906;28;19922;-82
2022/02/26 15:02:33;;;;;;;;;;;;;;;;;;5124240;28;19915;-80
2022/02/26 15:04:59;;;;;;;;;;;;;;;;;;5122398;28;20011;-83
2022/02/26 15:07:26;;;;;;;;;;;;;;;;;;5122932;28;19937;-81
2022/02/26 15:09:51;;;;;;;;;;;;;;;;;;5126024;28;20006;-83
2022/02/26 15:12:16;;;;;;;;;;;;;;;;;;5128313;28;19923;-81
2022/02/26 15:14:42;;;;;;;;;;;;;;;;;;5100556;28;19916;-77
2022/02/26 15:17:07;;;;;;;;;;;;;;;;;;5080963;28;19922;-79
2022/02/26 15:19:33;;;;;;;;;;;;;;;;;;5119156;28;19947;-78
2022/02/26 15:21:59;;;;;;;;;;;;;;;;;;5128734;28;19915;-80
2022/02/26 15:24:24;;;;;;;;;;;;;;;;;;5125933;28;19916;-81
2022/02/26 15:26:49;;;;;;;;;;;;;;;;;;5115382;28;19965;-76
2022/02/26 15:29:14;;;;;;;;;;;;;;;;;;5100468;28;19958;-78
2022/02/26 15:31:40;;;;;;;;;;;;;;;;;;5099419;28;20284;-81
2022/02/26 15:34:05;;;;;;;;;;;;;;;;;;5100101;28;19971;-79
2022/02/26 15:36:32;;;;;;;;;;;;;;;;;;5099684;28;19919;-78
2022/02/26 15:38:57;;;;;;;;;;;;;;;;;;5099949;28;19938;-82
2022/02/26 15:41:22;;;;;;;;;;;;;;;;;;5102295;28;19920;-85
2022/02/26 15:43:48;;;;;;;;;;;;;;;;;;5098947;28;19922;-81
2022/02/26 15:46:13;;;;;;;;;;;;;;;;;;5101499;28;19965;-80
2022/02/26 15:48:38;;;;;;;;;;;;;;;;;;5100710;28;19974;-79
2022/02/26 15:51:04;;;;;;;;;;;;;;;;;;5100024;28;19915;-83
2022/02/26 15:53:29;;;;;;;;;;;;;;;;;;5100001;28;20374;-81
2022/02/26 15:55:55;;;;;;;;;;;;;;;;;;5099887;28;19916;-82
2022/02/26 15:58:20;;;;;;;;;;;;;;;;;;5103823;28;19970;-81
2022/02/26 16:00:46;;;;;;;;;;;;;;;;;;5102132;28;20319;-82
2022/02/26 16:03:11;;;;;;;;;;;;;;;;;;5101332;28;19956;-83
2022/02/26 16:05:37;;;;;;;;;;;;;;;;;;5102322;28;19919;-82
2022/02/26 16:08:03;;;;;;;;;;;;;;;;;;5120216;28;19919;-77
2022/02/26 16:10:28;;;;;;;;;;;;;;;;;;5119709;28;20400;-86
2022/02/26 16:12:53;;;;;;;;;;;;;;;;;;5118555;28;19920;-83
2022/02/26 16:15:19;;;;;;;;;;;;;;;;;;5114040;28;19916;-78
2022/02/26 16:17:44;;;;;;;;;;;;;;;;;;5086740;28;19916;-79
2022/02/26 16:20:10;;;;;;;;;;;;;;;;;;5087428;28;19967;-78
2022/02/26 16:22:36;;;;;;;;;;;;;;;;;;5082664;28;19917;-78
2022/02/26 16:25:02;;;;;;;;;;;;;;;;;;5079143;28;19921;-85
2022/02/26 16:27:27;;;;;;;;;;;;;;;;;;5064665;28;19970;-86
2022/02/26 16:29:52;;;;;;;;;;;;;;;;;;5078274;28;19916;-84
2022/02/26 16:32:18;;;;;;;;;;;;;;;;;;5084033;28;19923;-83
2022/02/26 16:34:43;;;;;;;;;;;;;;;;;;5083245;28;19923;-83
2022/02/26 16:37:09;;;;;;;;;;;;;;;;;;5081291;28;20011;-82
2022/02/26 16:39:34;;;;;;;;;;;;;;;;;;5079533;28;19939;-81
2022/02/26 16:41:59;;;;;;;;;;;;;;;;;;5078792;28;19920;-85